Meath Environmental Platform

Observations for Trim Market St

Time AQI Temp °C Hum % Pres Pa CO μg/m³ H₂S μg/m³ NO μg/m³ NO₂ μg/m³ O₃ μg/m³ SO₂ μg/m³ PM1 μg/m³ PM2.5 μg/m³ PM10 μg/m³
Tuesday 25 August 2026
17:02 3 22.1 56 57,720 0 6.44 1.16 39.21 70.58 0 4.28 6.73 10.36
17:01 3 22.2 56 57,707 0 7.63 1.27 47.84 76.12 0 7.13 9.79 13.92
17:00 3 22.2 56 57,687 0.05 7.92 1.3 51.91 63.5 0 7.13 8.79 13.22
16:58 3 22.3 55 57,654 0.18 9.77 1.24 52.72 81.21 0 6.41 8.33 11.83
16:56 3 22.3 54 57,517 0 4.53 1.1 34.25 92.36 0 4.99 7.86 11.85
16:55 3 22.4 54 57,408 0 2.81 1.1 27.4 73.92 0 4.99 7.36 11.86
16:53 3 22.4 54 57,146 0 1.65 1.08 37.84 68.14 0 4.99 7.9 11.87
16:52 3 22.4 54 57,027 0 1.6 1.1 30.42 74.23 0 3.56 6.88 10.42
16:51 3 22.4 53 56,908 0 1.41 1.1 25.25 76.45 0 3.56 6.38 8.25
16:50 3 22.5 53 56,801 0 2.68 1.19 22.83 76.32 0 6.41 8.94 11.88
16:49 3 22.5 53 56,668 0 3.42 1.18 31.1 97.39 0 4.99 7.42 10.44
16:46 3 22.6 53 56,266 0 0 1.17 49.07 51.48 0 4.99 7.96 10.45
16:45 3 22.6 52 56,225 0 0 1.12 20.75 75.57 0 6.41 8.48 11.91
16:42 3 22.6 52 56,169 0 0 1.09 20.03 74.24 0 4.28 7.97 11.18
16:41 3 22.7 52 56,136 0 0.32 1.16 24.4 80.48 0 4.99 7.98 11.92
16:40 3 22.7 52 56,084 0 0 1.16 20.7 83.02 0 4.28 7.47 10.46
16:32 3 22.8 52 55,901 0 1.62 1.07 34.2 72.13 0 4.99 8.53 11.21
16:12 3 23.3 49 57,005 0 1.15 0.9 18.93 91.7 0 4.99 7.12 11.27
16:11 3 23.3 49 57,124 0 2.32 0.9 21.58 82.76 0 3.56 6.6 9.77
16:10 3 23.4 49 57,371 0 1.97 0.97 21.17 91.73 0 4.28 6.61 9.03